createdAt,value
2018-08-18T00:00:29.562Z,21.5
2018-08-18T00:01:29.531Z,21.53
2018-08-18T00:02:29.586Z,21.39
2018-08-18T00:03:29.519Z,21.37
2018-08-18T00:04:29.537Z,21.26
2018-08-18T00:05:29.715Z,21.24
2018-08-18T00:06:29.481Z,21.16
2018-08-18T00:07:29.636Z,21.22
2018-08-18T00:08:29.528Z,21.12
2018-08-18T00:09:29.670Z,21.07
2018-08-18T00:10:29.609Z,21.07
2018-08-18T00:11:29.548Z,21.01
2018-08-18T00:12:29.521Z,20.98
2018-08-18T00:13:29.682Z,20.92
2018-08-18T00:14:29.776Z,20.85
2018-08-18T00:15:29.511Z,20.87
2018-08-18T00:16:30.352Z,20.74
2018-08-18T00:17:29.600Z,20.74
2018-08-18T00:18:29.506Z,20.65
2018-08-18T00:19:29.600Z,20.68
2018-08-18T00:20:29.581Z,20.65
2018-08-18T00:21:29.656Z,20.7
2018-08-18T00:22:29.635Z,20.71
2018-08-18T00:23:29.518Z,20.7
2018-08-18T00:24:29.561Z,20.77
2018-08-18T00:25:29.501Z,20.82
2018-08-18T00:26:29.541Z,20.7
2018-08-18T00:27:29.516Z,20.54
2018-08-18T00:28:29.602Z,20.51
2018-08-18T00:29:29.536Z,20.58
2018-08-18T00:30:29.544Z,20.55
2018-08-18T00:31:29.603Z,20.61
2018-08-18T00:32:29.571Z,20.62
2018-08-18T00:33:29.558Z,20.67
2018-08-18T00:34:29.595Z,20.71
2018-08-18T00:35:29.539Z,20.61
2018-08-18T00:36:29.575Z,20.67
2018-08-18T00:37:29.592Z,20.74
2018-08-18T00:38:29.544Z,20.6
2018-08-18T00:39:29.559Z,20.6
2018-08-18T00:40:29.513Z,20.46
2018-08-18T00:41:29.723Z,20.55
2018-08-18T00:42:29.675Z,20.64
2018-08-18T00:43:29.629Z,20.7
2018-08-18T00:44:29.529Z,20.58
2018-08-18T00:45:29.600Z,20.52
2018-08-18T00:46:29.551Z,20.55
2018-08-18T00:47:29.555Z,20.61
2018-08-18T00:48:29.563Z,20.61
2018-08-18T00:49:29.636Z,20.62
2018-08-18T00:50:29.914Z,20.67
2018-08-18T00:51:29.733Z,20.68
2018-08-18T00:52:29.545Z,20.72
2018-08-18T00:53:29.745Z,20.67
2018-08-18T00:54:29.593Z,20.48
2018-08-18T00:55:29.565Z,20.5
2018-08-18T00:56:29.731Z,20.44
2018-08-18T00:57:29.713Z,20.36
2018-08-18T00:58:29.613Z,20.32
2018-08-18T00:59:29.640Z,20.3
2018-08-18T01:00:29.591Z,20.2
2018-08-18T01:01:29.536Z,20.24
2018-08-18T01:02:29.593Z,20.26
2018-08-18T01:03:29.595Z,20.23
2018-08-18T01:04:29.704Z,20.29
2018-08-18T01:05:29.692Z,20.33
2018-08-18T01:06:29.642Z,20.4
2018-08-18T01:07:29.716Z,20.43
2018-08-18T01:08:29.583Z,20.43
2018-08-18T01:09:30.280Z,20.5
2018-08-18T01:10:29.669Z,20.51
2018-08-18T01:11:30.289Z,20.54
2018-08-18T01:12:30.401Z,20.58
2018-08-18T01:13:29.691Z,20.61
2018-08-18T01:14:30.074Z,20.55
2018-08-18T01:15:29.892Z,20.57
2018-08-18T01:16:29.610Z,20.57
2018-08-18T01:17:29.745Z,20.52
2018-08-18T01:18:29.815Z,20.44
2018-08-18T01:19:29.750Z,20.39
2018-08-18T01:20:29.692Z,20.43
2018-08-18T01:21:30.159Z,20.44
2018-08-18T01:22:29.948Z,20.48
2018-08-18T01:23:29.815Z,20.43
2018-08-18T01:24:29.691Z,20.43
2018-08-18T01:25:29.899Z,20.41
2018-08-18T01:26:29.614Z,20.44
2018-08-18T01:27:29.638Z,20.43
2018-08-18T01:28:29.644Z,20.41
2018-08-18T01:29:29.681Z,20.41
2018-08-18T01:30:29.630Z,20.48
2018-08-18T01:31:29.609Z,20.47
2018-08-18T01:32:29.634Z,20.51
2018-08-18T01:33:29.583Z,20.52
2018-08-18T01:34:29.836Z,20.54
2018-08-18T01:35:29.779Z,20.57
2018-08-18T01:36:29.622Z,20.57
2018-08-18T01:37:29.664Z,20.61
2018-08-18T01:38:29.628Z,20.58
2018-08-18T01:39:29.831Z,20.62
2018-08-18T01:40:29.706Z,20.62
2018-08-18T01:41:30.414Z,20.64
2018-08-18T01:42:29.746Z,20.65
2018-08-18T01:43:29.713Z,20.68
2018-08-18T01:44:29.623Z,20.68
2018-08-18T01:45:29.612Z,20.72
2018-08-18T01:46:29.675Z,20.7
2018-08-18T01:47:29.649Z,20.72
2018-08-18T01:48:29.679Z,20.72
2018-08-18T01:49:29.665Z,20.7
2018-08-18T01:50:29.601Z,20.71
2018-08-18T01:51:29.637Z,20.71
2018-08-18T01:52:29.650Z,20.7
2018-08-18T01:53:29.616Z,20.72
2018-08-18T01:54:29.718Z,20.71
2018-08-18T01:55:29.621Z,20.71
2018-08-18T01:56:29.664Z,20.71
2018-08-18T01:57:29.639Z,20.71
2018-08-18T01:58:29.612Z,20.72
2018-08-18T01:59:29.622Z,20.72
2018-08-18T02:00:29.630Z,20.72
2018-08-18T02:01:29.688Z,20.72
2018-08-18T02:02:29.681Z,20.72
2018-08-18T02:03:29.627Z,20.72
2018-08-18T02:04:29.646Z,20.74
2018-08-18T02:05:29.630Z,20.72
2018-08-18T02:06:29.632Z,20.72
2018-08-18T02:07:29.640Z,20.71
2018-08-18T02:08:29.701Z,20.68
2018-08-18T02:09:29.658Z,20.68
2018-08-18T02:10:29.619Z,20.7
2018-08-18T02:11:29.641Z,20.65
2018-08-18T02:12:29.724Z,20.64
2018-08-18T02:13:29.656Z,20.65
2018-08-18T02:14:29.713Z,20.64
2018-08-18T02:15:29.725Z,20.64
2018-08-18T02:16:29.855Z,20.61
2018-08-18T02:17:29.799Z,20.58
2018-08-18T02:18:30.144Z,20.6
2018-08-18T02:19:29.667Z,20.55
2018-08-18T02:20:29.641Z,20.55
2018-08-18T02:21:29.761Z,20.55
2018-08-18T02:22:29.729Z,20.55
2018-08-18T02:23:29.724Z,20.52
2018-08-18T02:24:29.655Z,20.52
2018-08-18T02:25:29.685Z,20.52
2018-08-18T02:26:29.731Z,20.52
2018-08-18T02:27:29.704Z,20.54
2018-08-18T02:28:31.502Z,20.54
2018-08-18T02:29:29.861Z,20.51
2018-08-18T02:30:29.759Z,20.48
2018-08-18T02:31:29.674Z,20.48
2018-08-18T02:32:29.696Z,20.47
2018-08-18T02:33:29.755Z,20.5
2018-08-18T02:34:29.781Z,20.47
2018-08-18T02:35:29.712Z,20.46
2018-08-18T02:36:29.700Z,20.41
2018-08-18T02:37:29.711Z,20.47
2018-08-18T02:38:29.695Z,20.47
2018-08-18T02:39:29.681Z,20.46
2018-08-18T02:40:29.970Z,20.43
2018-08-18T02:41:29.697Z,20.41
2018-08-18T02:42:29.690Z,20.43
2018-08-18T02:43:29.847Z,20.34
2018-08-18T02:44:29.909Z,20.32
2018-08-18T02:45:30.963Z,20.26
2018-08-18T02:46:29.751Z,20.26
2018-08-18T02:47:29.826Z,20.26
2018-08-18T02:48:29.740Z,20.26
2018-08-18T02:49:29.755Z,20.2
2018-08-18T02:50:29.842Z,20.19
2018-08-18T02:51:29.737Z,20.19
2018-08-18T02:52:29.702Z,19.85
2018-08-18T02:53:29.755Z,19.88
2018-08-18T02:54:29.783Z,19.95
2018-08-18T02:55:30.702Z,19.91
2018-08-18T02:56:29.889Z,19.92
2018-08-18T02:57:29.745Z,19.93
2018-08-18T02:58:29.677Z,19.91
2018-08-18T02:59:29.715Z,19.95
2018-08-18T03:00:30.413Z,19.96
2018-08-18T03:01:29.719Z,19.93
2018-08-18T03:02:30.051Z,19.93
2018-08-18T03:03:29.682Z,19.95
2018-08-18T03:04:29.725Z,19.93
2018-08-18T03:05:29.830Z,19.93
2018-08-18T03:06:29.704Z,19.92
2018-08-18T03:07:29.760Z,19.91
2018-08-18T03:08:29.757Z,19.89
2018-08-18T03:09:29.761Z,19.88
2018-08-18T03:10:29.758Z,19.89
2018-08-18T03:11:29.768Z,19.86
2018-08-18T03:12:29.702Z,19.86
2018-08-18T03:13:29.833Z,19.84
2018-08-18T03:14:29.757Z,19.88
2018-08-18T03:15:29.739Z,19.86
2018-08-18T03:16:29.700Z,19.88
2018-08-18T03:17:29.737Z,19.89
2018-08-18T03:18:29.758Z,19.89
2018-08-18T03:19:29.729Z,19.92
2018-08-18T03:20:29.726Z,19.88
2018-08-18T03:21:29.731Z,19.89
2018-08-18T03:22:29.720Z,19.88
2018-08-18T03:23:29.717Z,19.88
2018-08-18T03:24:29.723Z,19.86
2018-08-18T03:25:29.747Z,19.86
2018-08-18T03:26:29.823Z,19.84
2018-08-18T03:27:29.976Z,19.84
2018-08-18T03:28:29.858Z,19.86
2018-08-18T03:29:29.746Z,19.86
2018-08-18T03:30:30.029Z,19.84
2018-08-18T03:31:29.747Z,19.85
2018-08-18T03:32:29.771Z,19.86
2018-08-18T03:33:29.748Z,19.82
2018-08-18T03:34:29.881Z,19.85
2018-08-18T03:35:29.850Z,19.84
2018-08-18T03:36:29.813Z,19.82
2018-08-18T03:37:29.745Z,19.82
2018-08-18T03:38:30.082Z,19.84
2018-08-18T03:39:29.841Z,19.84
2018-08-18T03:40:29.964Z,19.81
2018-08-18T03:41:29.987Z,19.78
2018-08-18T03:42:30.220Z,19.79
2018-08-18T03:43:29.951Z,19.81
2018-08-18T03:44:29.803Z,19.79
2018-08-18T03:45:29.744Z,19.81
2018-08-18T03:46:29.901Z,19.82
2018-08-18T03:47:30.432Z,19.82
2018-08-18T03:48:29.800Z,19.84
2018-08-18T03:49:29.777Z,19.84
2018-08-18T03:50:29.759Z,19.79
2018-08-18T03:51:29.737Z,19.79
2018-08-18T03:52:30.045Z,19.78
2018-08-18T03:53:29.873Z,19.79
2018-08-18T03:54:29.789Z,19.78
2018-08-18T03:55:29.853Z,19.79
2018-08-18T03:56:29.869Z,19.78
2018-08-18T03:57:29.890Z,19.78
2018-08-18T03:58:29.805Z,19.78
2018-08-18T03:59:30.395Z,19.79
2018-08-18T04:00:29.805Z,19.77
2018-08-18T04:01:29.934Z,19.78
2018-08-18T04:02:30.199Z,19.77
2018-08-18T04:03:29.792Z,19.78
2018-08-18T04:04:29.824Z,19.78
2018-08-18T04:05:30.254Z,19.75
2018-08-18T04:06:29.838Z,19.74
2018-08-18T04:07:29.854Z,19.74
2018-08-18T04:08:29.976Z,19.72
2018-08-18T04:09:29.788Z,19.7
2018-08-18T04:10:29.878Z,19.65
2018-08-18T04:11:29.820Z,19.6
2018-08-18T04:12:29.784Z,19.58
2018-08-18T04:13:29.795Z,19.57
2018-08-18T04:14:29.971Z,19.54
2018-08-18T04:15:29.862Z,19.54
2018-08-18T04:16:30.122Z,19.51
2018-08-18T04:17:30.178Z,19.5
2018-08-18T04:18:30.130Z,19.47
2018-08-18T04:19:29.942Z,19.49
2018-08-18T04:20:29.966Z,19.49
2018-08-18T04:21:29.939Z,19.49
2018-08-18T04:22:29.794Z,19.49
2018-08-18T04:23:30.317Z,19.49
2018-08-18T04:24:29.831Z,19.47
2018-08-18T04:25:30.121Z,19.44
2018-08-18T04:26:30.247Z,19.46
2018-08-18T04:27:29.830Z,19.44
2018-08-18T04:28:29.836Z,19.44
2018-08-18T04:29:29.790Z,19.44
2018-08-18T04:30:29.778Z,19.44
2018-08-18T04:31:29.976Z,19.46
2018-08-18T04:32:29.847Z,19.44
2018-08-18T04:33:29.851Z,19.44
2018-08-18T04:34:29.936Z,19.44
2018-08-18T04:35:30.266Z,19.44
2018-08-18T04:36:29.854Z,19.46
2018-08-18T04:37:29.936Z,19.46
2018-08-18T04:38:29.897Z,19.44
2018-08-18T04:39:29.903Z,19.4
2018-08-18T04:40:29.835Z,19.39
2018-08-18T04:41:29.983Z,19.39
2018-08-18T04:42:29.854Z,19.39
2018-08-18T04:43:29.827Z,19.37
2018-08-18T04:44:29.875Z,19.34
2018-08-18T04:45:29.841Z,19.23
2018-08-18T04:46:29.892Z,19.15
2018-08-18T04:47:29.849Z,19.16
2018-08-18T04:48:30.004Z,19.1
2018-08-18T04:49:29.887Z,19.08
2018-08-18T04:50:30.342Z,18.95
2018-08-18T04:51:29.928Z,18.98
2018-08-18T04:52:30.280Z,18.99
2018-08-18T04:53:29.826Z,18.87
2018-08-18T04:54:30.055Z,18.87
2018-08-18T04:55:29.996Z,18.88
2018-08-18T04:56:30.101Z,18.89
2018-08-18T04:57:29.976Z,18.94
2018-08-18T04:58:29.845Z,18.92
2018-08-18T04:59:30.432Z,18.95
2018-08-18T05:00:29.858Z,18.99
2018-08-18T05:01:29.822Z,18.98
2018-08-18T05:02:29.970Z,18.99
2018-08-18T05:03:30.384Z,18.99
2018-08-18T05:04:29.835Z,19.01
2018-08-18T05:05:29.845Z,19.05
2018-08-18T05:06:29.889Z,19.03
2018-08-18T05:07:37.028Z,19.05
2018-08-18T05:08:30.669Z,19.06
2018-08-18T05:09:30.181Z,19.02
2018-08-18T05:10:29.985Z,19.03
2018-08-18T05:11:29.977Z,19.05
2018-08-18T05:12:29.976Z,19.08
2018-08-18T05:13:29.999Z,19.09
2018-08-18T05:14:30.110Z,19.13
2018-08-18T05:15:29.963Z,19.08
2018-08-18T05:16:29.888Z,18.99
2018-08-18T05:17:30.124Z,18.98
2018-08-18T05:18:29.979Z,18.85
2018-08-18T05:19:29.861Z,18.87
2018-08-18T05:20:30.076Z,18.89
2018-08-18T05:21:29.868Z,18.91
2018-08-18T05:22:29.992Z,18.94
2018-08-18T05:23:30.735Z,18.95
2018-08-18T05:24:29.997Z,18.94
2018-08-18T05:25:29.919Z,19.01
2018-08-18T05:26:29.975Z,19.02
2018-08-18T05:27:29.907Z,19.03
2018-08-18T05:28:30.014Z,19.03
2018-08-18T05:29:29.930Z,19.06
2018-08-18T05:30:30.021Z,19.03
2018-08-18T05:31:30.080Z,19.08
2018-08-18T05:32:29.929Z,19.06
2018-08-18T05:33:30.054Z,19.1
2018-08-18T05:34:29.928Z,19.1
2018-08-18T05:35:30.023Z,19.15
2018-08-18T05:36:30.203Z,19.09
2018-08-18T05:37:30.080Z,19.13
2018-08-18T05:38:30.025Z,19.16
2018-08-18T05:39:29.969Z,19.13
2018-08-18T05:40:29.900Z,19.12
2018-08-18T05:41:30.007Z,19.12
2018-08-18T05:42:30.041Z,19.12
2018-08-18T05:43:30.169Z,19.13
2018-08-18T05:44:29.981Z,19.19
2018-08-18T05:45:29.890Z,19.22
2018-08-18T05:46:29.917Z,19.26
2018-08-18T05:47:30.039Z,19.3
2018-08-18T05:48:29.920Z,19.29
2018-08-18T05:49:29.889Z,19.29
2018-08-18T05:50:29.940Z,19.3
2018-08-18T05:51:29.978Z,19.22
2018-08-18T05:52:29.905Z,19.29
2018-08-18T05:53:29.880Z,19.25
2018-08-18T05:54:29.939Z,19.29
2018-08-18T05:55:29.946Z,19.17
2018-08-18T05:56:29.907Z,19.08
2018-08-18T05:57:29.986Z,19.19
2018-08-18T05:58:29.945Z,19.21
2018-08-18T05:59:29.912Z,19.27
2018-08-18T06:00:29.904Z,19.26
2018-08-18T06:01:29.936Z,19.25
2018-08-18T06:02:29.917Z,19.19
2018-08-18T06:03:29.924Z,19.26
2018-08-18T06:04:29.922Z,19.32
2018-08-18T06:05:29.933Z,19.29
2018-08-18T06:06:29.935Z,19.21
2018-08-18T06:07:29.947Z,19.1
2018-08-18T06:08:29.998Z,19.16
2018-08-18T06:09:29.981Z,19.23
2018-08-18T06:10:29.919Z,19.23
2018-08-18T06:11:29.941Z,19.23
2018-08-18T06:12:29.946Z,19.23
2018-08-18T06:13:30.036Z,19.3
2018-08-18T06:14:29.990Z,19.36
2018-08-18T06:15:29.952Z,19.4
2018-08-18T06:16:29.947Z,19.47
2018-08-18T06:17:30.115Z,19.5
2018-08-18T06:18:30.016Z,19.54
2018-08-18T06:19:30.072Z,19.58
2018-08-18T06:20:30.081Z,19.57
2018-08-18T06:21:29.953Z,19.5
2018-08-18T06:22:29.947Z,19.56
2018-08-18T06:23:29.938Z,19.58
2018-08-18T06:24:29.921Z,19.56
2018-08-18T06:25:29.963Z,19.46
2018-08-18T06:26:29.988Z,19.54
2018-08-18T06:27:29.999Z,19.6
2018-08-18T06:28:29.978Z,19.61
2018-08-18T06:29:29.965Z,19.6
2018-08-18T06:30:29.945Z,19.51
2018-08-18T06:31:29.912Z,19.54
2018-08-18T06:32:30.051Z,19.56
2018-08-18T06:33:30.151Z,19.61
2018-08-18T06:34:30.088Z,19.61
2018-08-18T06:35:29.957Z,19.64
2018-08-18T06:36:29.989Z,19.58
2018-08-18T06:37:29.949Z,19.6
2018-08-18T06:38:29.972Z,19.65
2018-08-18T06:39:30.109Z,19.72
2018-08-18T06:40:29.980Z,19.75
2018-08-18T06:41:30.229Z,19.79
2018-08-18T06:42:29.990Z,19.79
2018-08-18T06:43:30.150Z,19.81
2018-08-18T06:44:29.962Z,19.86
2018-08-18T06:45:30.040Z,19.85
2018-08-18T06:46:30.004Z,19.89
2018-08-18T06:47:30.136Z,19.95
2018-08-18T06:48:30.023Z,19.93
2018-08-18T06:49:30.091Z,19.96
2018-08-18T06:50:30.007Z,20.01
2018-08-18T06:51:30.047Z,20.01
2018-08-18T06:52:30.166Z,19.96
2018-08-18T06:53:29.969Z,19.91
2018-08-18T06:54:30.427Z,20.01
2018-08-18T06:55:30.045Z,20.02
2018-08-18T06:56:29.996Z,20.08
2018-08-18T06:57:30.095Z,20.12
2018-08-18T06:58:30.005Z,20.08
2018-08-18T06:59:30.163Z,20.11
2018-08-18T07:00:30.028Z,20.16
2018-08-18T07:01:29.981Z,20.16
2018-08-18T07:02:30.010Z,20.2
2018-08-18T07:03:29.979Z,20.17
2018-08-18T07:04:30.054Z,20.23
2018-08-18T07:05:29.997Z,20.27
2018-08-18T07:06:30.027Z,20.26
2018-08-18T07:07:29.980Z,20.27
2018-08-18T07:08:30.950Z,20.33
2018-08-18T07:09:30.008Z,20.39
2018-08-18T07:10:29.994Z,20.36
2018-08-18T07:11:30.095Z,20.37
2018-08-18T07:12:29.977Z,20.4
2018-08-18T07:13:30.033Z,20.37
2018-08-18T07:14:30.032Z,20.44
2018-08-18T07:15:30.004Z,20.5
2018-08-18T07:16:29.981Z,20.5
2018-08-18T07:17:30.043Z,20.5
2018-08-18T07:18:30.067Z,20.52
2018-08-18T07:19:30.247Z,20.54
2018-08-18T07:20:29.987Z,20.55
2018-08-18T07:21:30.005Z,20.61
2018-08-18T07:22:30.011Z,20.64
2018-08-18T07:23:30.022Z,20.68
2018-08-18T07:24:30.017Z,20.67
2018-08-18T07:25:30.066Z,20.7
2018-08-18T07:26:30.033Z,20.68
2018-08-18T07:27:30.053Z,20.75
2018-08-18T07:28:30.331Z,20.78
2018-08-18T07:29:30.188Z,20.84
2018-08-18T07:30:30.052Z,20.92
2018-08-18T07:31:30.025Z,20.89
2018-08-18T07:32:30.043Z,20.91
2018-08-18T07:33:30.038Z,20.89
2018-08-18T07:34:30.025Z,20.81
2018-08-18T07:35:30.140Z,20.88
2018-08-18T07:36:30.050Z,20.89
2018-08-18T07:37:30.295Z,20.92
2018-08-18T07:38:30.033Z,20.95
2018-08-18T07:39:30.049Z,21.01
2018-08-18T07:40:30.016Z,21.06
2018-08-18T07:41:30.423Z,21.09
2018-08-18T07:42:30.050Z,21.1
2018-08-18T07:43:30.075Z,21.12
2018-08-18T07:44:30.034Z,21.09
2018-08-18T07:45:30.031Z,21.15
2018-08-18T07:46:30.382Z,21.15
2018-08-18T07:47:30.069Z,21.16
2018-08-18T07:48:30.084Z,21.22
2018-08-18T07:49:30.071Z,21.23
2018-08-18T07:50:30.236Z,21.16
2018-08-18T07:51:30.072Z,21.2
2018-08-18T07:52:30.050Z,21.24
2018-08-18T07:53:30.544Z,21.16
2018-08-18T07:54:30.056Z,21.26
2018-08-18T07:55:30.079Z,21.26
2018-08-18T07:56:30.069Z,21.3
2018-08-18T07:57:30.103Z,21.36
2018-08-18T07:58:30.143Z,21.4
2018-08-18T07:59:30.069Z,21.44
2018-08-18T08:00:30.082Z,21.44
2018-08-18T08:01:30.285Z,21.5
2018-08-18T08:02:30.089Z,21.5
2018-08-18T08:03:30.120Z,21.5
2018-08-18T08:04:30.074Z,21.51
2018-08-18T08:05:30.247Z,21.57
2018-08-18T08:06:30.089Z,21.57
2018-08-18T08:07:30.206Z,21.65
2018-08-18T08:08:30.335Z,21.67
2018-08-18T08:09:30.041Z,21.69
2018-08-18T08:10:30.083Z,21.64
2018-08-18T08:11:30.057Z,21.69
2018-08-18T08:12:30.485Z,21.74
2018-08-18T08:13:30.062Z,21.65
2018-08-18T08:14:30.162Z,21.64
2018-08-18T08:15:30.078Z,21.72
2018-08-18T08:16:30.091Z,21.74
2018-08-18T08:17:30.082Z,21.77
2018-08-18T08:18:30.135Z,21.84
2018-08-18T08:19:30.108Z,21.95
2018-08-18T08:20:30.132Z,21.89
2018-08-18T08:21:30.084Z,21.88
2018-08-18T08:22:30.143Z,21.98
2018-08-18T08:23:30.211Z,22.08
2018-08-18T08:24:30.147Z,22.11
2018-08-18T08:25:30.096Z,22.16
2018-08-18T08:26:30.134Z,22.16
2018-08-18T08:27:30.105Z,22.19
2018-08-18T08:28:30.146Z,22.2
2018-08-18T08:29:30.357Z,22.24
2018-08-18T08:30:30.079Z,22.3
2018-08-18T08:31:30.115Z,22.34
2018-08-18T08:32:30.074Z,22.31
2018-08-18T08:33:30.087Z,22.33
2018-08-18T08:34:30.070Z,22.29
2018-08-18T08:35:30.227Z,22.22
2018-08-18T08:36:30.087Z,22.23
2018-08-18T08:37:30.083Z,22.31
2018-08-18T08:38:30.112Z,22.3
2018-08-18T08:39:30.105Z,22.3
2018-08-18T08:40:30.138Z,22.37
2018-08-18T08:41:30.092Z,22.36
2018-08-18T08:42:30.113Z,22.4
2018-08-18T08:43:30.154Z,22.44
2018-08-18T08:44:30.420Z,22.5
2018-08-18T08:45:30.076Z,22.54
2018-08-18T08:46:30.085Z,22.6
2018-08-18T08:47:30.131Z,22.51
2018-08-18T08:48:30.182Z,22.64
2018-08-18T08:49:30.123Z,22.65
2018-08-18T08:50:30.197Z,22.65
2018-08-18T08:51:30.232Z,22.72
2018-08-18T08:52:30.115Z,22.71
2018-08-18T08:53:30.125Z,22.74
2018-08-18T08:54:30.168Z,22.71
2018-08-18T08:55:30.146Z,22.79
2018-08-18T08:56:30.174Z,22.79
2018-08-18T08:57:30.120Z,22.82
2018-08-18T08:58:30.200Z,22.86
2018-08-18T08:59:30.214Z,22.92
2018-08-18T09:00:30.140Z,23.01
2018-08-18T09:01:30.100Z,23.03
2018-08-18T09:02:30.124Z,23.05
2018-08-18T09:03:30.115Z,23.07
2018-08-18T09:04:30.260Z,23.01
2018-08-18T09:05:30.114Z,23.05
2018-08-18T09:06:30.132Z,23.09
2018-08-18T09:07:30.253Z,23.06
2018-08-18T09:08:30.131Z,22.99
2018-08-18T09:09:30.178Z,22.98
2018-08-18T09:10:30.193Z,23.07
2018-08-18T09:11:30.151Z,23.03
2018-08-18T09:12:30.138Z,23.05
2018-08-18T09:13:30.175Z,23.03
2018-08-18T09:14:30.191Z,23.13
2018-08-18T09:15:30.399Z,23.2
2018-08-18T09:16:30.282Z,23.19
2018-08-18T09:17:30.196Z,23.18
2018-08-18T09:18:30.113Z,23.18
2018-08-18T09:19:30.198Z,23.27
2018-08-18T09:20:30.802Z,23.36
2018-08-18T09:21:30.439Z,23.39
2018-08-18T09:22:30.180Z,23.43
2018-08-18T09:23:30.278Z,23.48
2018-08-18T09:24:30.253Z,23.48
2018-08-18T09:25:30.442Z,23.36
2018-08-18T09:26:30.640Z,23.4
2018-08-18T09:27:30.265Z,23.51
2018-08-18T09:28:30.181Z,23.51
2018-08-18T09:29:30.165Z,23.48
2018-08-18T09:30:30.319Z,23.47
2018-08-18T09:31:30.268Z,23.53
2018-08-18T09:32:30.225Z,23.56
2018-08-18T09:33:30.209Z,23.64
2018-08-18T09:34:30.494Z,23.67
2018-08-18T09:35:30.349Z,23.74
2018-08-18T09:36:30.212Z,23.74
2018-08-18T09:37:30.207Z,23.74
2018-08-18T09:38:30.211Z,23.68
2018-08-18T09:39:30.235Z,23.74
2018-08-18T09:40:30.267Z,23.92
2018-08-18T09:41:30.269Z,23.92
2018-08-18T09:42:30.240Z,23.88
2018-08-18T09:43:30.232Z,23.77
2018-08-18T09:44:30.264Z,23.74
2018-08-18T09:45:31.359Z,23.73
2018-08-18T09:46:38.572Z,23.77
2018-08-18T09:47:31.014Z,23.78
2018-08-18T09:48:30.213Z,23.81
2018-08-18T09:49:30.354Z,23.88
2018-08-18T09:50:30.198Z,23.96
2018-08-18T09:51:30.212Z,24.03
2018-08-18T09:52:30.227Z,24.09
2018-08-18T09:53:30.374Z,24.1
2018-08-18T09:54:30.209Z,24.13
2018-08-18T09:55:30.204Z,24.12
2018-08-18T09:56:30.224Z,24.01
2018-08-18T09:57:30.223Z,23.92
2018-08-18T09:58:30.245Z,23.99
2018-08-18T09:59:30.447Z,24.16
2018-08-18T10:00:30.263Z,24.12
2018-08-18T10:01:30.200Z,24.05
2018-08-18T10:02:30.570Z,24.06
2018-08-18T10:03:30.209Z,24.08
2018-08-18T10:04:30.279Z,24.13
2018-08-18T10:05:30.313Z,24.24
2018-08-18T10:06:30.515Z,24.19
2018-08-18T10:07:30.261Z,24.26
2018-08-18T10:08:30.212Z,24.33
2018-08-18T10:09:30.492Z,24.44
2018-08-18T10:10:30.205Z,24.4
2018-08-18T10:11:30.256Z,24.48
2018-08-18T10:12:30.221Z,24.51
2018-08-18T10:13:30.187Z,24.53
2018-08-18T10:14:30.371Z,24.54
2018-08-18T10:15:30.262Z,24.55
2018-08-18T10:16:30.274Z,24.63
2018-08-18T10:17:30.338Z,24.48
2018-08-18T10:18:30.228Z,24.51
2018-08-18T10:19:30.434Z,24.5
2018-08-18T10:20:31.082Z,24.65
2018-08-18T10:21:31.357Z,24.74
2018-08-18T10:22:30.351Z,24.71
2018-08-18T10:23:30.247Z,24.78
2018-08-18T10:24:31.618Z,24.75
2018-08-18T10:25:32.120Z,24.81
2018-08-18T10:26:30.250Z,24.77
2018-08-18T10:27:30.256Z,24.79
2018-08-18T10:28:30.307Z,24.65
2018-08-18T10:29:30.359Z,24.48
2018-08-18T10:30:30.307Z,24.68
2018-08-18T10:31:30.520Z,24.67
2018-08-18T10:32:30.395Z,24.88
2018-08-18T10:33:30.311Z,24.92
2018-08-18T10:34:30.399Z,24.97
2018-08-18T10:35:30.260Z,25.03
2018-08-18T10:36:30.459Z,25.05
2018-08-18T10:37:30.336Z,25.03
2018-08-18T10:38:30.252Z,25.02
2018-08-18T10:39:30.497Z,25.06
2018-08-18T10:40:30.350Z,25.15
2018-08-18T10:41:30.424Z,25.16
2018-08-18T10:42:30.458Z,25.25
2018-08-18T10:43:30.247Z,25.34
2018-08-18T10:44:30.483Z,25.48
2018-08-18T10:45:30.315Z,25.43
2018-08-18T10:46:30.365Z,25.43
2018-08-18T10:47:30.597Z,25.46
2018-08-18T10:48:30.370Z,25.63
2018-08-18T10:49:30.362Z,25.7
2018-08-18T10:50:30.373Z,25.74
2018-08-18T10:51:30.662Z,25.68
2018-08-18T10:52:30.298Z,25.57
2018-08-18T10:53:30.426Z,25.56
2018-08-18T10:54:30.405Z,25.6
2018-08-18T10:55:30.418Z,25.75
2018-08-18T10:56:30.333Z,25.75
2018-08-18T10:57:30.530Z,25.8
2018-08-18T10:58:30.527Z,25.82
2018-08-18T10:59:30.456Z,25.77
2018-08-18T11:00:30.460Z,25.8
2018-08-18T11:01:30.464Z,25.93
2018-08-18T11:02:31.057Z,25.84
2018-08-18T11:03:30.374Z,25.77
2018-08-18T11:04:33.969Z,25.84
2018-08-18T11:05:30.292Z,25.77
2018-08-18T11:06:30.553Z,25.81
2018-08-18T11:07:30.396Z,25.92
2018-08-18T11:08:30.607Z,26.08
2018-08-18T11:09:30.373Z,26.06
2018-08-18T11:10:30.420Z,26.08
2018-08-18T11:11:30.542Z,25.95
2018-08-18T11:12:30.295Z,25.96
2018-08-18T11:13:30.445Z,25.95
2018-08-18T11:14:30.448Z,25.93
2018-08-18T11:15:30.460Z,25.98
2018-08-18T11:16:30.456Z,25.87
2018-08-18T11:17:30.371Z,25.91
2018-08-18T11:18:32.653Z,25.98
2018-08-18T11:19:30.281Z,26.13
2018-08-18T11:20:30.530Z,26.02
2018-08-18T11:21:30.497Z,25.99
2018-08-18T11:22:30.409Z,26.08
2018-08-18T11:23:30.512Z,26.02
2018-08-18T11:24:30.519Z,26.06
2018-08-18T11:25:30.337Z,26.22
2018-08-18T11:26:30.412Z,26.27
2018-08-18T11:27:30.541Z,26.27
2018-08-18T11:28:30.865Z,26.32
2018-08-18T11:29:30.308Z,26.33
2018-08-18T11:30:31.182Z,26.36
2018-08-18T11:31:30.460Z,26.43
2018-08-18T11:32:30.368Z,26.46
2018-08-18T11:33:33.311Z,26.42
2018-08-18T11:34:30.366Z,26.44
2018-08-18T11:35:31.616Z,26.47
2018-08-18T11:36:30.322Z,26.5
2018-08-18T11:37:30.612Z,26.55
2018-08-18T11:38:30.512Z,26.54
2018-08-18T11:39:30.323Z,26.61
2018-08-18T11:40:30.417Z,26.67
2018-08-18T11:41:30.602Z,26.71
2018-08-18T11:42:30.397Z,26.72
2018-08-18T11:43:30.340Z,26.68
2018-08-18T11:44:30.441Z,26.65
2018-08-18T11:45:30.354Z,26.61
2018-08-18T11:46:30.328Z,26.65
2018-08-18T11:47:30.700Z,26.72
2018-08-18T11:48:30.409Z,26.79
2018-08-18T11:49:30.346Z,26.78
2018-08-18T11:50:30.613Z,26.81
2018-08-18T11:51:30.356Z,26.54
2018-08-18T11:52:30.521Z,26.48
2018-08-18T11:53:30.532Z,26.61
2018-08-18T11:54:30.347Z,26.57
2018-08-18T11:55:30.489Z,26.7
2018-08-18T11:56:30.641Z,26.72
2018-08-18T11:57:30.360Z,26.96
2018-08-18T11:58:30.489Z,27.02
2018-08-18T11:59:31.334Z,27.16
2018-08-18T12:00:30.397Z,27.13
2018-08-18T12:01:30.353Z,27.22
2018-08-18T12:02:30.390Z,27.27
2018-08-18T12:03:30.396Z,27.26
2018-08-18T12:04:30.364Z,27.32
2018-08-18T12:05:30.596Z,27.32
2018-08-18T12:06:30.618Z,27.32
2018-08-18T12:07:30.494Z,27.09
2018-08-18T12:08:31.462Z,27.16
2018-08-18T12:09:30.378Z,27.15
2018-08-18T12:10:30.767Z,27.22
2018-08-18T12:11:30.398Z,27.26
2018-08-18T12:12:30.368Z,27.3
2018-08-18T12:13:30.473Z,27.37
2018-08-18T12:14:30.439Z,27.1
2018-08-18T12:15:30.595Z,27.09
2018-08-18T12:16:30.382Z,27.13
2018-08-18T12:17:30.467Z,27.2
2018-08-18T12:18:30.487Z,27.22
2018-08-18T12:19:30.461Z,27.33
2018-08-18T12:20:30.981Z,27.33
2018-08-18T12:21:30.369Z,27.32
2018-08-18T12:22:30.669Z,26.85
2018-08-18T12:23:30.722Z,27.12
2018-08-18T12:24:30.454Z,27.27
2018-08-18T12:25:30.463Z,27.15
2018-08-18T12:26:30.523Z,27.2
2018-08-18T12:27:30.573Z,27.27
2018-08-18T12:28:31.060Z,27.34
2018-08-18T12:29:30.934Z,27.4
2018-08-18T12:30:30.652Z,27.53
2018-08-18T12:31:30.410Z,27.72
2018-08-18T12:32:31.844Z,27.6
2018-08-18T12:33:30.479Z,27.32
2018-08-18T12:34:30.745Z,27.29
2018-08-18T12:35:30.469Z,27.36
2018-08-18T12:36:30.858Z,27.43
2018-08-18T12:37:31.989Z,27.44
2018-08-18T12:38:30.421Z,27.5
2018-08-18T12:39:30.405Z,27.56
2018-08-18T12:40:30.547Z,27.6
2018-08-18T12:41:30.742Z,27.56
2018-08-18T12:42:30.569Z,27.6
2018-08-18T12:43:30.695Z,27.6
2018-08-18T12:44:30.455Z,27.51
2018-08-18T12:45:30.504Z,27.51
2018-08-18T12:46:30.398Z,27.53
2018-08-18T12:47:30.412Z,27.49
2018-08-18T12:48:30.584Z,27.61
2018-08-18T12:49:30.568Z,27.6
2018-08-18T12:50:30.399Z,27.61
2018-08-18T12:51:30.420Z,27.71
2018-08-18T12:52:30.424Z,27.78
2018-08-18T12:53:30.429Z,27.82
2018-08-18T12:54:30.630Z,27.81
2018-08-18T12:55:30.558Z,27.75